createdAt,value
2023-05-15T00:00:20.586Z,7.20
2023-05-15T00:02:50.104Z,8.02
2023-05-15T00:05:22.599Z,7.70
2023-05-15T00:10:21.705Z,8.18
2023-05-15T00:12:51.156Z,7.55
2023-05-15T00:15:20.929Z,6.85
2023-05-15T00:17:50.436Z,8.13
2023-05-15T00:20:22.518Z,7.47
2023-05-15T00:22:52.062Z,7.50
2023-05-15T00:25:22.026Z,7.43
2023-05-15T00:27:51.487Z,7.53
2023-05-15T00:30:20.937Z,7.78
2023-05-15T00:32:50.468Z,8.30
2023-05-15T00:35:23.347Z,7.95
2023-05-15T00:37:53.659Z,7.72
2023-05-15T00:40:26.680Z,7.72
2023-05-15T00:42:58.304Z,7.28
2023-05-15T00:45:29.328Z,6.88
2023-05-15T00:48:00.486Z,8.07
2023-05-15T00:50:34.022Z,7.63
2023-05-15T00:53:03.758Z,8.20
2023-05-15T00:55:35.013Z,7.57
2023-05-15T00:58:05.359Z,8.40
2023-05-15T01:00:36.302Z,8.95
2023-05-15T01:03:08.268Z,7.57
2023-05-15T01:05:40.620Z,7.53
2023-05-15T01:08:19.625Z,8.23
2023-05-15T01:10:51.039Z,8.27
2023-05-15T01:13:23.116Z,8.20
2023-05-15T01:15:53.174Z,8.52
2023-05-15T01:18:23.011Z,7.97
2023-05-15T01:21:11.848Z,7.43
2023-05-15T01:23:54.908Z,8.13
2023-05-15T01:26:51.931Z,8.15
2023-05-15T01:29:28.879Z,7.40
2023-05-15T01:32:06.277Z,7.95
2023-05-15T01:34:46.148Z,7.60
2023-05-15T01:37:17.222Z,7.57
2023-05-15T01:39:50.829Z,8.52
2023-05-15T01:42:22.271Z,8.50
2023-05-15T01:44:59.518Z,8.23
2023-05-15T01:47:36.305Z,7.55
2023-05-15T01:50:08.081Z,7.80
2023-05-15T01:52:43.624Z,7.50
2023-05-15T01:55:15.440Z,6.97
2023-05-15T01:57:46.169Z,7.68
2023-05-15T02:00:19.925Z,7.70
2023-05-15T02:02:52.716Z,7.70
2023-05-15T02:05:23.444Z,7.75
2023-05-15T02:07:53.414Z,8.25
2023-05-15T02:10:25.401Z,8.05
2023-05-15T02:12:57.799Z,8.13
2023-05-15T02:15:31.441Z,8.75
2023-05-15T02:18:01.060Z,8.00
2023-05-15T02:20:30.723Z,7.93
2023-05-15T02:23:00.238Z,7.55
2023-05-15T02:25:37.965Z,8.07
2023-05-15T02:28:11.123Z,8.00
2023-05-15T02:30:51.947Z,7.80
2023-05-15T02:33:32.641Z,8.57
2023-05-15T02:36:08.182Z,7.83
2023-05-15T02:38:41.755Z,8.02
2023-05-15T02:41:12.930Z,7.70
2023-05-15T02:43:42.869Z,8.25
2023-05-15T02:46:16.789Z,8.05
2023-05-15T02:48:46.893Z,8.50
2023-05-15T02:51:16.808Z,7.93
2023-05-15T02:53:46.929Z,8.13
2023-05-15T02:56:16.453Z,7.20
2023-05-15T02:58:46.078Z,7.70
2023-05-15T03:01:18.150Z,8.33
2023-05-15T03:03:47.793Z,8.13
2023-05-15T03:06:18.772Z,8.03
2023-05-15T03:08:48.265Z,8.13
2023-05-15T03:11:19.341Z,7.50
2023-05-15T03:13:48.782Z,8.17
2023-05-15T03:16:20.905Z,7.75
2023-05-15T03:18:50.567Z,7.80
2023-05-15T03:21:20.468Z,7.55
2023-05-15T03:23:50.001Z,8.48
2023-05-15T03:26:19.490Z,7.83
2023-05-15T03:28:48.968Z,7.97
2023-05-15T03:31:21.244Z,7.88
2023-05-15T03:33:51.608Z,8.48
2023-05-15T03:36:22.624Z,7.90
2023-05-15T03:38:52.513Z,8.57
2023-05-15T03:41:22.208Z,8.60
2023-05-15T03:43:51.650Z,8.25
2023-05-15T03:46:23.781Z,8.32
2023-05-15T03:48:54.616Z,7.90
2023-05-15T03:51:24.287Z,8.13
2023-05-15T03:53:56.444Z,8.57
2023-05-15T03:56:26.044Z,8.65
2023-05-15T03:58:55.893Z,7.87
2023-05-15T04:01:28.081Z,7.60
2023-05-15T04:03:57.587Z,8.23
2023-05-15T04:06:27.225Z,8.33
2023-05-15T04:08:56.710Z,7.90
2023-05-15T04:11:26.484Z,8.35
2023-05-15T04:13:55.940Z,8.55
2023-05-15T04:16:27.978Z,7.67
2023-05-15T04:18:57.555Z,8.38
2023-05-15T04:21:27.136Z,8.32
2023-05-15T04:23:56.593Z,7.85
2023-05-15T04:26:26.345Z,8.65
2023-05-15T04:31:35.365Z,8.93
2023-05-15T04:34:05.579Z,8.32
2023-05-15T04:36:35.164Z,8.27
2023-05-15T04:39:04.745Z,7.75
2023-05-15T04:41:34.395Z,8.37
2023-05-15T04:44:03.944Z,8.37
2023-05-15T04:46:37.713Z,8.87
2023-05-15T04:49:07.374Z,8.90
2023-05-15T04:51:36.859Z,8.43
2023-05-15T04:54:07.001Z,9.47
2023-05-15T04:56:36.574Z,8.75
2023-05-15T04:59:06.184Z,9.63
2023-05-15T05:01:38.258Z,8.93
2023-05-15T05:04:07.891Z,9.73
2023-05-15T05:06:37.439Z,8.67
2023-05-15T05:09:07.392Z,8.53
2023-05-15T05:11:39.291Z,9.60
2023-05-15T05:14:08.753Z,10.13
2023-05-15T05:16:41.127Z,11.40
2023-05-15T05:19:10.870Z,10.27
2023-05-15T05:21:40.571Z,9.23
2023-05-15T05:24:10.246Z,9.10
2023-05-15T05:26:39.729Z,9.73
2023-05-15T05:29:09.205Z,10.13
2023-05-15T05:31:41.629Z,11.03
2023-05-15T05:34:11.603Z,10.65
2023-05-15T05:36:41.152Z,9.87
2023-05-15T05:39:10.914Z,10.33
2023-05-15T05:41:40.392Z,10.83
2023-05-15T05:44:09.819Z,9.53
2023-05-15T05:46:41.856Z,10.23
2023-05-15T05:49:11.337Z,10.20
2023-05-15T05:51:41.013Z,9.87
2023-05-15T05:54:10.493Z,9.70
2023-05-15T05:56:40.694Z,10.73
2023-05-15T05:59:10.235Z,9.80
2023-05-15T06:01:42.669Z,10.87
2023-05-15T06:04:12.201Z,10.50
2023-05-15T06:06:41.659Z,11.20
2023-05-15T06:09:11.119Z,9.65
2023-05-15T06:11:40.615Z,10.57
2023-05-15T06:14:10.399Z,9.90
2023-05-15T06:16:42.463Z,10.73
2023-05-15T06:19:12.137Z,10.25
2023-05-15T06:21:41.762Z,10.07
2023-05-15T06:24:11.634Z,10.40
2023-05-15T06:26:41.187Z,11.38
2023-05-15T06:29:10.738Z,10.70
2023-05-15T06:31:42.933Z,11.30
2023-05-15T06:34:12.384Z,10.48
2023-05-15T06:36:42.032Z,9.73
2023-05-15T06:39:12.307Z,9.77
2023-05-15T06:41:41.808Z,10.00
2023-05-15T06:44:15.185Z,9.60
2023-05-15T06:46:47.310Z,11.50
2023-05-15T06:49:16.803Z,9.48
2023-05-15T06:51:46.293Z,9.73
2023-05-15T06:54:15.761Z,9.98
2023-05-15T06:56:45.319Z,10.85
2023-05-15T06:59:14.878Z,9.52
2023-05-15T07:01:47.011Z,10.45
2023-05-15T07:04:16.650Z,10.25
2023-05-15T07:06:46.253Z,9.70
2023-05-15T07:09:15.918Z,10.20
2023-05-15T07:11:45.486Z,10.15
2023-05-15T07:14:15.378Z,10.00
2023-05-15T07:16:53.876Z,10.13
2023-05-15T07:19:27.301Z,8.45
2023-05-15T07:21:56.901Z,8.50
2023-05-15T07:24:26.628Z,8.77
2023-05-15T07:26:59.107Z,8.15
2023-05-15T07:29:29.225Z,9.00
2023-05-15T07:32:01.503Z,10.20
2023-05-15T07:34:31.441Z,9.25
2023-05-15T07:37:01.664Z,8.38
2023-05-15T07:39:35.772Z,9.50
2023-05-15T07:42:05.565Z,9.77
2023-05-15T07:44:35.093Z,9.52
2023-05-15T07:47:07.974Z,9.13
2023-05-15T07:49:37.550Z,9.00
2023-05-15T07:52:07.845Z,8.68
2023-05-15T07:54:37.435Z,8.88
2023-05-15T07:57:07.703Z,8.82
2023-05-15T07:59:37.897Z,8.73
2023-05-15T08:02:10.181Z,9.27
2023-05-15T08:04:39.760Z,9.02
2023-05-15T08:07:09.819Z,8.90
2023-05-15T08:09:39.297Z,8.93
2023-05-15T08:12:21.396Z,10.10
2023-05-15T08:14:52.200Z,7.82
2023-05-15T08:17:24.877Z,9.25
2023-05-15T08:19:55.028Z,8.63
2023-05-15T08:22:24.728Z,8.82
2023-05-15T08:24:54.142Z,8.48
2023-05-15T08:27:23.673Z,9.05
2023-05-15T08:29:54.195Z,8.70
2023-05-15T08:32:26.872Z,9.45
2023-05-15T08:34:56.369Z,10.13
2023-05-15T08:37:25.817Z,9.13
2023-05-15T08:39:55.258Z,8.50
2023-05-15T08:42:30.732Z,9.50
2023-05-15T08:45:02.534Z,7.97
2023-05-15T08:47:41.285Z,8.27
2023-05-15T08:50:15.299Z,8.40
2023-05-15T08:52:47.068Z,8.00
2023-05-15T08:55:17.783Z,8.13
2023-05-15T08:57:48.258Z,8.38
2023-05-15T09:00:21.098Z,7.97
2023-05-15T09:02:53.526Z,8.35
2023-05-15T09:05:23.605Z,6.90
2023-05-15T09:07:58.150Z,6.25
2023-05-15T09:10:28.026Z,6.25
2023-05-15T09:13:00.169Z,6.05
2023-05-15T09:15:30.790Z,6.45
2023-05-15T09:18:04.937Z,5.40
2023-05-15T09:20:36.203Z,5.93
2023-05-15T09:23:07.991Z,5.68
2023-05-15T09:25:42.772Z,6.45
2023-05-15T09:28:13.635Z,5.72
2023-05-15T09:30:45.518Z,5.68
2023-05-15T09:33:20.069Z,5.38
2023-05-15T09:35:49.918Z,5.50
2023-05-15T09:38:19.630Z,5.10
2023-05-15T09:40:49.619Z,6.03
2023-05-15T09:43:19.319Z,5.78
2023-05-15T09:45:50.905Z,5.93
2023-05-15T09:48:23.826Z,6.07
2023-05-15T09:50:55.025Z,6.60
2023-05-15T09:53:25.627Z,5.85
2023-05-15T09:55:57.621Z,6.07
2023-05-15T09:58:27.233Z,5.80
2023-05-15T10:00:57.998Z,5.80
2023-05-15T10:03:30.172Z,5.18
2023-05-15T10:06:05.181Z,6.15
2023-05-15T10:08:37.210Z,5.82
2023-05-15T10:11:09.573Z,5.65
2023-05-15T10:13:40.145Z,5.35
2023-05-15T10:16:11.357Z,5.75
2023-05-15T10:18:44.290Z,6.38
2023-05-15T10:21:15.491Z,6.28
2023-05-15T10:23:46.826Z,5.35
2023-05-15T10:26:24.381Z,6.25
2023-05-15T10:28:55.870Z,6.10
2023-05-15T10:31:27.653Z,5.85
2023-05-15T10:34:00.693Z,5.63
2023-05-15T10:36:30.676Z,5.80
2023-05-15T10:39:02.242Z,6.13
2023-05-15T10:41:33.053Z,5.97
2023-05-15T10:44:04.483Z,5.95
2023-05-15T10:46:38.238Z,6.28
2023-05-15T10:49:11.804Z,6.03
2023-05-15T10:51:42.280Z,5.75
2023-05-15T10:54:13.843Z,5.50
2023-05-15T10:56:45.034Z,5.90
2023-05-15T10:59:15.824Z,6.65
2023-05-15T11:01:45.789Z,5.95
2023-05-15T11:04:21.216Z,5.63
2023-05-15T11:06:52.809Z,6.57
2023-05-15T11:09:39.416Z,5.90
2023-05-15T11:12:11.869Z,5.75
2023-05-15T11:14:46.364Z,5.78
2023-05-15T11:17:17.797Z,5.85
2023-05-15T11:20:02.967Z,5.93
2023-05-15T11:22:36.122Z,6.07
2023-05-15T11:25:09.217Z,6.63
2023-05-15T11:27:42.309Z,6.97
2023-05-15T11:30:15.088Z,6.10
2023-05-15T11:33:03.920Z,6.25
2023-05-15T11:35:37.867Z,5.80
2023-05-15T11:38:14.138Z,5.57
2023-05-15T11:40:49.385Z,6.05
2023-05-15T11:43:24.806Z,5.80
2023-05-15T11:45:56.299Z,5.80
2023-05-15T11:48:27.741Z,6.53
2023-05-15T11:50:59.890Z,5.78
2023-05-15T11:53:31.362Z,5.53
2023-05-15T11:56:03.558Z,6.38
2023-05-15T11:58:33.173Z,5.45
2023-05-15T12:01:02.876Z,6.28
2023-05-15T12:03:37.062Z,6.28
2023-05-15T12:06:09.483Z,6.00
2023-05-15T12:08:40.190Z,6.90
2023-05-15T12:11:09.783Z,7.45
2023-05-15T12:13:39.417Z,5.45
2023-05-15T12:16:09.289Z,5.78
2023-05-15T12:18:39.035Z,5.55
2023-05-15T12:21:12.652Z,5.57
2023-05-15T12:23:48.733Z,6.10
2023-05-15T12:26:27.388Z,6.10
2023-05-15T12:28:57.766Z,5.88
2023-05-15T12:31:27.776Z,5.95
2023-05-15T12:33:58.118Z,6.63
2023-05-15T12:36:31.225Z,6.40
2023-05-15T12:39:01.044Z,6.00
2023-05-15T12:41:31.008Z,6.47
2023-05-15T12:44:00.754Z,6.68
2023-05-15T12:46:33.377Z,6.63
2023-05-15T12:49:04.392Z,6.00
2023-05-15T12:51:36.690Z,5.93
2023-05-15T12:54:07.493Z,5.97
2023-05-15T12:56:37.227Z,5.97
2023-05-15T12:59:07.246Z,5.95
2023-05-15T13:01:36.942Z,5.70
2023-05-15T13:04:06.995Z,6.10
2023-05-15T13:06:46.971Z,6.43
2023-05-15T13:09:17.691Z,5.93
2023-05-15T13:11:47.681Z,6.00
2023-05-15T13:14:21.212Z,5.75
2023-05-15T13:16:50.926Z,5.85
2023-05-15T13:19:21.348Z,6.10
2023-05-15T13:21:53.590Z,5.90
2023-05-15T13:24:23.148Z,6.07
2023-05-15T13:26:53.056Z,6.43
2023-05-15T13:29:22.674Z,6.13
2023-05-15T13:31:52.314Z,6.05
2023-05-15T13:34:21.986Z,6.43
2023-05-15T13:37:03.278Z,6.30
2023-05-15T13:39:35.058Z,7.25
2023-05-15T13:42:04.757Z,6.82
2023-05-15T13:44:36.156Z,7.43
2023-05-15T13:47:05.760Z,6.70
2023-05-15T13:49:35.274Z,7.18
2023-05-15T13:52:08.075Z,6.45
2023-05-15T13:54:37.627Z,7.05
2023-05-15T13:57:07.946Z,8.00
2023-05-15T13:59:37.451Z,6.57
2023-05-15T14:02:07.240Z,5.93
2023-05-15T14:04:36.707Z,6.05
2023-05-15T14:07:08.834Z,6.18
2023-05-15T14:09:38.340Z,6.10
2023-05-15T14:12:09.828Z,6.32
2023-05-15T14:14:39.304Z,6.82
2023-05-15T14:17:09.126Z,6.25
2023-05-15T14:19:38.590Z,6.53
2023-05-15T14:22:10.881Z,6.30
2023-05-15T14:24:40.439Z,6.32
2023-05-15T14:27:10.453Z,5.60
2023-05-15T14:29:39.945Z,5.68
2023-05-15T14:32:10.382Z,5.60
2023-05-15T14:34:39.992Z,4.72
2023-05-15T14:37:12.100Z,5.15
2023-05-15T14:39:41.622Z,4.93
2023-05-15T14:42:11.277Z,4.80
2023-05-15T14:44:40.864Z,4.10
2023-05-15T14:47:12.502Z,4.10
2023-05-15T14:49:42.586Z,3.77
2023-05-15T14:52:14.701Z,3.90
2023-05-15T14:54:45.937Z,3.70
2023-05-15T14:57:20.384Z,3.85
2023-05-15T14:59:50.032Z,3.55
2023-05-15T15:02:19.553Z,3.90
2023-05-15T15:04:49.155Z,4.53
2023-05-15T15:07:21.222Z,4.45
2023-05-15T15:09:50.824Z,4.97
2023-05-15T15:12:20.298Z,4.20
2023-05-15T15:14:49.878Z,3.70
2023-05-15T15:17:19.398Z,4.28
2023-05-15T15:19:48.847Z,4.13
2023-05-15T15:22:21.012Z,4.03
2023-05-15T15:24:50.684Z,4.95
2023-05-15T15:27:20.287Z,4.65
2023-05-15T15:29:49.961Z,4.60
2023-05-15T15:32:19.558Z,4.55
2023-05-15T15:34:49.299Z,4.68
2023-05-15T15:37:21.443Z,5.35
2023-05-15T15:39:51.028Z,4.70
2023-05-15T15:42:20.583Z,4.65
2023-05-15T15:44:50.079Z,4.70
2023-05-15T15:47:19.904Z,4.85
2023-05-15T15:49:49.535Z,5.05
2023-05-15T15:52:22.286Z,5.20
2023-05-15T15:54:51.949Z,5.40
2023-05-15T15:57:22.723Z,5.35
2023-05-15T15:59:52.380Z,4.40
2023-05-15T16:02:22.003Z,4.63
2023-05-15T16:04:52.457Z,5.25
2023-05-15T16:07:24.452Z,5.22
2023-05-15T16:10:10.073Z,9.63
2023-05-15T16:12:42.526Z,8.35
2023-05-15T16:15:23.261Z,8.10
2023-05-15T16:17:55.257Z,7.70
2023-05-15T16:20:25.400Z,7.57
2023-05-15T16:22:58.085Z,6.72
2023-05-15T16:25:27.657Z,6.05
2023-05-15T16:27:57.201Z,5.47
2023-05-15T16:30:40.126Z,5.82
2023-05-15T16:33:17.773Z,5.82
2023-05-15T16:35:47.487Z,6.30
2023-05-15T16:38:19.539Z,6.10
2023-05-15T16:40:49.659Z,5.50
2023-05-15T16:43:20.011Z,5.57
2023-05-15T16:45:49.491Z,5.28
2023-05-15T16:48:19.049Z,5.85
2023-05-15T16:50:48.548Z,5.30
2023-05-15T16:53:20.883Z,5.07
2023-05-15T16:55:50.927Z,4.93
2023-05-15T16:58:20.406Z,4.88
2023-05-15T17:00:50.374Z,4.70
2023-05-15T17:03:20.540Z,4.68
2023-05-15T17:05:50.077Z,5.07
2023-05-15T17:08:22.153Z,5.10
2023-05-15T17:10:51.727Z,4.53
2023-05-15T17:13:21.923Z,5.32
2023-05-15T17:15:52.406Z,6.30
2023-05-15T17:18:22.235Z,5.95
2023-05-15T17:20:51.705Z,5.80
2023-05-15T17:23:23.793Z,7.22
2023-05-15T17:25:53.364Z,7.60
2023-05-15T17:28:22.828Z,8.48
2023-05-15T17:30:52.491Z,9.65
2023-05-15T17:33:22.055Z,9.60
2023-05-15T17:35:52.576Z,8.07
2023-05-15T17:38:24.597Z,7.82
2023-05-15T17:40:54.170Z,7.80
2023-05-15T17:43:23.606Z,7.53
2023-05-15T17:45:53.084Z,7.60
2023-05-15T17:48:22.558Z,8.75
2023-05-15T17:50:52.338Z,9.23
2023-05-15T17:53:24.794Z,7.82
2023-05-15T17:55:54.359Z,8.13
2023-05-15T17:58:23.910Z,7.28
2023-05-15T18:00:54.451Z,8.35
2023-05-15T18:03:24.086Z,7.05
2023-05-15T18:05:53.871Z,7.65
2023-05-15T18:08:26.089Z,8.88
2023-05-15T18:10:55.536Z,8.77
2023-05-15T18:13:25.533Z,7.45
2023-05-15T18:15:55.037Z,8.80
2023-05-15T18:18:25.169Z,9.25
2023-05-15T18:20:54.865Z,9.07
2023-05-15T18:23:26.972Z,8.32
2023-05-15T18:25:56.583Z,8.35
2023-05-15T18:28:26.175Z,8.80
2023-05-15T18:30:55.689Z,7.45
2023-05-15T18:33:25.235Z,7.20
2023-05-15T18:35:55.697Z,6.53
2023-05-15T18:38:27.776Z,6.00
2023-05-15T18:40:57.353Z,5.75
2023-05-15T18:43:26.874Z,5.75
2023-05-15T18:45:56.954Z,5.05
2023-05-15T18:48:26.456Z,5.28
2023-05-15T18:50:56.981Z,5.00
2023-05-15T18:53:29.050Z,5.18
2023-05-15T18:55:58.642Z,5.40
2023-05-15T18:58:28.244Z,5.32
2023-05-15T19:00:57.818Z,4.88
2023-05-15T19:03:27.525Z,4.78
2023-05-15T19:05:56.960Z,5.38
2023-05-15T19:08:29.036Z,5.40
2023-05-15T19:11:01.245Z,5.28
2023-05-15T19:13:33.304Z,5.20
2023-05-15T19:16:04.308Z,5.15
2023-05-15T19:18:36.681Z,5.75
2023-05-15T19:21:06.434Z,5.45
2023-05-15T19:23:38.556Z,6.10
2023-05-15T19:26:08.056Z,5.57
2023-05-15T19:28:37.662Z,5.63
2023-05-15T19:31:11.794Z,5.70
2023-05-15T19:33:46.716Z,6.85
2023-05-15T19:36:16.634Z,5.60
2023-05-15T19:38:48.673Z,6.57
2023-05-15T19:41:18.273Z,5.93
2023-05-15T19:43:50.740Z,6.63
2023-05-15T19:46:20.763Z,6.30
2023-05-15T19:48:50.363Z,6.32
2023-05-15T19:51:19.780Z,6.15
2023-05-15T19:53:51.851Z,6.47
2023-05-15T19:56:22.921Z,6.68
2023-05-15T19:58:52.407Z,6.13
2023-05-15T20:01:22.150Z,6.68
2023-05-15T20:03:51.752Z,6.75
2023-05-15T20:06:21.404Z,7.17
2023-05-15T20:08:53.473Z,6.55
2023-05-15T20:11:23.082Z,6.90
2023-05-15T20:13:52.510Z,6.33
2023-05-15T20:16:22.079Z,6.87
2023-05-15T20:18:54.740Z,7.27
2023-05-15T20:23:56.630Z,7.23
2023-05-15T20:26:26.395Z,6.85
2023-05-15T20:28:56.195Z,7.03
2023-05-15T20:31:26.246Z,6.67
2023-05-15T20:33:57.335Z,6.90
2023-05-15T20:36:28.370Z,6.80
2023-05-15T20:39:06.380Z,7.67
2023-05-15T20:41:36.351Z,7.13
2023-05-15T20:44:06.114Z,8.13
2023-05-15T20:46:35.661Z,6.87
2023-05-15T20:49:05.121Z,7.87
2023-05-15T20:51:34.637Z,7.63
2023-05-15T20:54:07.042Z,9.53
2023-05-15T20:56:36.522Z,8.30
2023-05-15T20:59:06.371Z,9.00
2023-05-15T21:01:36.242Z,8.17
2023-05-15T21:04:06.294Z,8.30
2023-05-15T21:06:35.966Z,8.63
2023-05-15T21:09:08.785Z,8.20
2023-05-15T21:11:38.331Z,9.20
2023-05-15T21:14:08.611Z,8.77
2023-05-15T21:16:38.121Z,9.70
2023-05-15T21:19:07.710Z,9.63
2023-05-15T21:21:38.021Z,8.57
2023-05-15T21:24:10.449Z,10.80
2023-05-15T21:26:39.902Z,9.65
2023-05-15T21:29:09.357Z,9.83
2023-05-15T21:31:38.871Z,9.27
2023-05-15T21:34:08.412Z,9.10
2023-05-15T21:36:37.965Z,9.83
2023-05-15T21:39:10.783Z,10.30
2023-05-15T21:41:40.264Z,10.10
2023-05-15T21:44:09.712Z,9.50
2023-05-15T21:46:39.210Z,9.43
2023-05-15T21:49:08.642Z,9.77
2023-05-15T21:51:38.154Z,9.93
2023-05-15T21:54:10.246Z,10.40
2023-05-15T21:56:39.670Z,10.43
2023-05-15T21:59:10.557Z,11.97
2023-05-15T22:01:41.114Z,11.17
2023-05-15T22:04:10.699Z,12.63
2023-05-15T22:06:40.334Z,11.47
2023-05-15T22:09:12.709Z,11.73
2023-05-15T22:11:42.251Z,11.10
2023-05-15T22:14:11.729Z,11.13
2023-05-15T22:16:41.276Z,11.70
2023-05-15T22:19:21.461Z,11.57
2023-05-15T22:21:58.340Z,11.67
2023-05-15T22:24:30.465Z,10.57
2023-05-15T22:27:00.525Z,11.68
2023-05-15T22:29:29.987Z,10.87
2023-05-15T22:31:59.618Z,11.87
2023-05-15T22:34:30.075Z,11.70
2023-05-15T22:36:59.619Z,9.93
2023-05-15T22:39:31.805Z,11.97
2023-05-15T22:42:01.259Z,10.60
2023-05-15T22:44:31.093Z,10.27
2023-05-15T22:47:00.619Z,9.87
2023-05-15T22:49:30.174Z,9.87
2023-05-15T22:52:01.058Z,10.23
2023-05-15T22:54:33.244Z,10.27
2023-05-15T22:57:02.664Z,11.35
2023-05-15T22:59:32.228Z,11.23
2023-05-15T23:02:01.699Z,10.70
2023-05-15T23:04:31.138Z,11.97
2023-05-15T23:07:00.581Z,10.70
2023-05-15T23:09:36.365Z,11.40
2023-05-15T23:12:06.381Z,11.45
2023-05-15T23:14:35.855Z,10.70
2023-05-15T23:17:05.728Z,10.20
2023-05-15T23:19:35.199Z,9.43
2023-05-15T23:22:05.097Z,9.53
2023-05-15T23:24:39.522Z,8.97
2023-05-15T23:27:08.962Z,9.97
2023-05-15T23:29:38.985Z,9.73
2023-05-15T23:32:09.866Z,9.77
2023-05-15T23:34:39.360Z,9.73
2023-05-15T23:37:08.801Z,9.50
2023-05-15T23:39:40.860Z,9.13
2023-05-15T23:42:12.521Z,9.02
2023-05-15T23:44:42.016Z,9.57
2023-05-15T23:47:11.585Z,11.13
2023-05-15T23:49:41.134Z,9.43
2023-05-15T23:52:10.722Z,11.53
2023-05-15T23:54:42.772Z,9.23
2023-05-15T23:57:12.300Z,8.68
2023-05-15T23:59:41.846Z,9.17
